sensor_id;sensor_type;location;lat;lon;timestamp;P1;durP1;ratioP1;P2;durP2;ratioP2
16654;SDS011;8441;51.344;7.022;2022-09-30T00:01:05;0.28;;;0.28;;
16654;SDS011;8441;51.344;7.022;2022-09-30T00:03:33;0.40;;;0.40;;
16654;SDS011;8441;51.344;7.022;2022-09-30T00:06:02;0.30;;;0.30;;
16654;SDS011;8441;51.344;7.022;2022-09-30T00:08:31;0.30;;;0.30;;
16654;SDS011;8441;51.344;7.022;2022-09-30T00:11:01;0.30;;;0.30;;
16654;SDS011;8441;51.344;7.022;2022-09-30T00:13:29;0.40;;;0.40;;
16654;SDS011;8441;51.344;7.022;2022-09-30T00:15:57;0.40;;;0.40;;
16654;SDS011;8441;51.344;7.022;2022-09-30T00:18:24;0.40;;;0.40;;
16654;SDS011;8441;51.344;7.022;2022-09-30T00:20:52;0.40;;;0.40;;
16654;SDS011;8441;51.344;7.022;2022-09-30T00:23:20;0.40;;;0.40;;
16654;SDS011;8441;51.344;7.022;2022-09-30T00:25:48;0.40;;;0.40;;
16654;SDS011;8441;51.344;7.022;2022-09-30T00:28:17;0.40;;;0.40;;
16654;SDS011;8441;51.344;7.022;2022-09-30T00:30:44;0.40;;;0.40;;
16654;SDS011;8441;51.344;7.022;2022-09-30T00:33:12;0.40;;;0.40;;
16654;SDS011;8441;51.344;7.022;2022-09-30T00:35:39;0.30;;;0.30;;
16654;SDS011;8441;51.344;7.022;2022-09-30T00:38:07;0.32;;;0.32;;
16654;SDS011;8441;51.344;7.022;2022-09-30T00:40:36;0.30;;;0.30;;
16654;SDS011;8441;51.344;7.022;2022-09-30T00:43:05;0.40;;;0.40;;
16654;SDS011;8441;51.344;7.022;2022-09-30T00:45:40;0.35;;;0.35;;
16654;SDS011;8441;51.344;7.022;2022-09-30T00:48:14;0.40;;;0.40;;
16654;SDS011;8441;51.344;7.022;2022-09-30T00:50:44;0.40;;;0.40;;
16654;SDS011;8441;51.344;7.022;2022-09-30T00:53:21;0.30;;;0.30;;
16654;SDS011;8441;51.344;7.022;2022-09-30T00:55:54;0.40;;;0.40;;
16654;SDS011;8441;51.344;7.022;2022-09-30T00:58:26;0.30;;;0.30;;
16654;SDS011;8441;51.344;7.022;2022-09-30T01:00:58;0.40;;;0.40;;
16654;SDS011;8441;51.344;7.022;2022-09-30T01:03:27;0.40;;;0.40;;
16654;SDS011;8441;51.344;7.022;2022-09-30T01:05:57;0.40;;;0.40;;
16654;SDS011;8441;51.344;7.022;2022-09-30T01:08:25;0.30;;;0.30;;
16654;SDS011;8441;51.344;7.022;2022-09-30T01:10:53;0.40;;;0.40;;
16654;SDS011;8441;51.344;7.022;2022-09-30T01:13:20;0.30;;;0.30;;
16654;SDS011;8441;51.344;7.022;2022-09-30T01:15:57;0.40;;;0.40;;
16654;SDS011;8441;51.344;7.022;2022-09-30T01:18:37;0.30;;;0.30;;
16654;SDS011;8441;51.344;7.022;2022-09-30T01:21:27;0.40;;;0.40;;
16654;SDS011;8441;51.344;7.022;2022-09-30T01:24:34;0.40;;;0.40;;
16654;SDS011;8441;51.344;7.022;2022-09-30T01:27:29;0.20;;;0.20;;
16654;SDS011;8441;51.344;7.022;2022-09-30T01:30:10;0.30;;;0.30;;
16654;SDS011;8441;51.344;7.022;2022-09-30T01:38:34;0.40;;;0.40;;
16654;SDS011;8441;51.344;7.022;2022-09-30T01:41:11;0.32;;;0.32;;
16654;SDS011;8441;51.344;7.022;2022-09-30T01:43:46;0.30;;;0.30;;
16654;SDS011;8441;51.344;7.022;2022-09-30T01:46:20;0.30;;;0.30;;
16654;SDS011;8441;51.344;7.022;2022-09-30T01:48:56;0.30;;;0.30;;
16654;SDS011;8441;51.344;7.022;2022-09-30T01:51:31;0.30;;;0.30;;
16654;SDS011;8441;51.344;7.022;2022-09-30T01:54:04;0.30;;;0.30;;
16654;SDS011;8441;51.344;7.022;2022-09-30T01:56:39;0.32;;;0.32;;
16654;SDS011;8441;51.344;7.022;2022-09-30T01:59:10;0.40;;;0.40;;
16654;SDS011;8441;51.344;7.022;2022-09-30T02:01:41;0.40;;;0.40;;
16654;SDS011;8441;51.344;7.022;2022-09-30T02:04:16;0.20;;;0.20;;
16654;SDS011;8441;51.344;7.022;2022-09-30T02:06:47;0.40;;;0.40;;
16654;SDS011;8441;51.344;7.022;2022-09-30T02:09:17;0.35;;;0.35;;
16654;SDS011;8441;51.344;7.022;2022-09-30T02:11:51;0.40;;;0.40;;
16654;SDS011;8441;51.344;7.022;2022-09-30T02:14:22;0.30;;;0.30;;
16654;SDS011;8441;51.344;7.022;2022-09-30T02:16:54;0.32;;;0.32;;
16654;SDS011;8441;51.344;7.022;2022-09-30T02:19:28;0.40;;;0.40;;
16654;SDS011;8441;51.344;7.022;2022-09-30T02:22:03;0.32;;;0.32;;
16654;SDS011;8441;51.344;7.022;2022-09-30T02:24:34;0.40;;;0.40;;
16654;SDS011;8441;51.344;7.022;2022-09-30T02:27:02;0.40;;;0.40;;
16654;SDS011;8441;51.344;7.022;2022-09-30T02:29:34;0.40;;;0.40;;
16654;SDS011;8441;51.344;7.022;2022-09-30T02:32:06;0.30;;;0.30;;
16654;SDS011;8441;51.344;7.022;2022-09-30T02:34:40;0.30;;;0.30;;
16654;SDS011;8441;51.344;7.022;2022-09-30T02:37:12;0.28;;;0.28;;
16654;SDS011;8441;51.344;7.022;2022-09-30T02:39:45;0.30;;;0.30;;
16654;SDS011;8441;51.344;7.022;2022-09-30T02:42:19;0.50;;;0.50;;
16654;SDS011;8441;51.344;7.022;2022-09-30T02:44:51;0.30;;;0.30;;
16654;SDS011;8441;51.344;7.022;2022-09-30T02:47:22;0.32;;;0.32;;
16654;SDS011;8441;51.344;7.022;2022-09-30T02:49:57;0.30;;;0.30;;
16654;SDS011;8441;51.344;7.022;2022-09-30T02:52:34;0.40;;;0.40;;
16654;SDS011;8441;51.344;7.022;2022-09-30T02:55:14;0.30;;;0.30;;
16654;SDS011;8441;51.344;7.022;2022-09-30T02:57:51;0.40;;;0.40;;
16654;SDS011;8441;51.344;7.022;2022-09-30T03:00:23;0.40;;;0.40;;
16654;SDS011;8441;51.344;7.022;2022-09-30T03:02:52;0.32;;;0.32;;
16654;SDS011;8441;51.344;7.022;2022-09-30T03:05:24;0.32;;;0.32;;
16654;SDS011;8441;51.344;7.022;2022-09-30T03:07:53;0.40;;;0.40;;
16654;SDS011;8441;51.344;7.022;2022-09-30T03:10:21;0.40;;;0.40;;
16654;SDS011;8441;51.344;7.022;2022-09-30T03:12:56;0.32;;;0.32;;
16654;SDS011;8441;51.344;7.022;2022-09-30T03:15:50;0.30;;;0.30;;
16654;SDS011;8441;51.344;7.022;2022-09-30T03:21:25;0.30;;;0.30;;
16654;SDS011;8441;51.344;7.022;2022-09-30T03:27:04;0.32;;;0.32;;
16654;SDS011;8441;51.344;7.022;2022-09-30T03:29:41;0.30;;;0.30;;
16654;SDS011;8441;51.344;7.022;2022-09-30T03:32:17;0.40;;;0.40;;
16654;SDS011;8441;51.344;7.022;2022-09-30T03:34:58;0.30;;;0.30;;
16654;SDS011;8441;51.344;7.022;2022-09-30T03:37:32;0.40;;;0.40;;
16654;SDS011;8441;51.344;7.022;2022-09-30T03:40:12;0.30;;;0.30;;
16654;SDS011;8441;51.344;7.022;2022-09-30T03:42:46;0.40;;;0.40;;
16654;SDS011;8441;51.344;7.022;2022-09-30T03:45:18;0.38;;;0.38;;
16654;SDS011;8441;51.344;7.022;2022-09-30T03:47:50;0.40;;;0.40;;
16654;SDS011;8441;51.344;7.022;2022-09-30T03:50:22;0.30;;;0.30;;
16654;SDS011;8441;51.344;7.022;2022-09-30T03:52:54;0.30;;;0.30;;
16654;SDS011;8441;51.344;7.022;2022-09-30T03:55:22;0.40;;;0.40;;
16654;SDS011;8441;51.344;7.022;2022-09-30T03:57:50;0.38;;;0.38;;
16654;SDS011;8441;51.344;7.022;2022-09-30T04:00:18;0.40;;;0.40;;
16654;SDS011;8441;51.344;7.022;2022-09-30T04:02:46;0.35;;;0.35;;
16654;SDS011;8441;51.344;7.022;2022-09-30T04:05:13;0.30;;;0.30;;
16654;SDS011;8441;51.344;7.022;2022-09-30T04:07:40;0.38;;;0.38;;
16654;SDS011;8441;51.344;7.022;2022-09-30T04:10:09;0.30;;;0.30;;
16654;SDS011;8441;51.344;7.022;2022-09-30T04:12:37;0.40;;;0.40;;
16654;SDS011;8441;51.344;7.022;2022-09-30T04:15:04;0.30;;;0.30;;
16654;SDS011;8441;51.344;7.022;2022-09-30T04:17:32;0.32;;;0.32;;
16654;SDS011;8441;51.344;7.022;2022-09-30T04:19:59;0.38;;;0.38;;
16654;SDS011;8441;51.344;7.022;2022-09-30T04:22:26;0.30;;;0.30;;
16654;SDS011;8441;51.344;7.022;2022-09-30T04:24:53;0.30;;;0.30;;
16654;SDS011;8441;51.344;7.022;2022-09-30T04:27:22;0.20;;;0.20;;
16654;SDS011;8441;51.344;7.022;2022-09-30T04:29:49;0.38;;;0.38;;
16654;SDS011;8441;51.344;7.022;2022-09-30T04:32:16;0.40;;;0.40;;
16654;SDS011;8441;51.344;7.022;2022-09-30T04:34:44;0.38;;;0.38;;
16654;SDS011;8441;51.344;7.022;2022-09-30T04:37:11;0.32;;;0.32;;
16654;SDS011;8441;51.344;7.022;2022-09-30T04:39:38;0.30;;;0.30;;
16654;SDS011;8441;51.344;7.022;2022-09-30T04:42:06;0.40;;;0.40;;
16654;SDS011;8441;51.344;7.022;2022-09-30T04:44:34;0.30;;;0.30;;
16654;SDS011;8441;51.344;7.022;2022-09-30T04:47:02;0.35;;;0.35;;
16654;SDS011;8441;51.344;7.022;2022-09-30T04:49:30;0.40;;;0.40;;
16654;SDS011;8441;51.344;7.022;2022-09-30T04:51:58;0.30;;;0.30;;
16654;SDS011;8441;51.344;7.022;2022-09-30T04:54:25;0.40;;;0.40;;
16654;SDS011;8441;51.344;7.022;2022-09-30T04:56:52;0.30;;;0.30;;
16654;SDS011;8441;51.344;7.022;2022-09-30T04:59:19;0.20;;;0.20;;
16654;SDS011;8441;51.344;7.022;2022-09-30T05:01:48;0.30;;;0.30;;
16654;SDS011;8441;51.344;7.022;2022-09-30T05:04:15;0.40;;;0.40;;
16654;SDS011;8441;51.344;7.022;2022-09-30T05:06:42;0.40;;;0.40;;
16654;SDS011;8441;51.344;7.022;2022-09-30T05:09:09;0.30;;;0.30;;
16654;SDS011;8441;51.344;7.022;2022-09-30T05:11:36;0.40;;;0.40;;
16654;SDS011;8441;51.344;7.022;2022-09-30T05:14:07;0.30;;;0.30;;
16654;SDS011;8441;51.344;7.022;2022-09-30T05:16:34;0.30;;;0.30;;
16654;SDS011;8441;51.344;7.022;2022-09-30T05:19:03;0.38;;;0.38;;
16654;SDS011;8441;51.344;7.022;2022-09-30T05:21:30;0.30;;;0.30;;
16654;SDS011;8441;51.344;7.022;2022-09-30T05:23:57;0.40;;;0.40;;
16654;SDS011;8441;51.344;7.022;2022-09-30T05:26:25;0.35;;;0.35;;
16654;SDS011;8441;51.344;7.022;2022-09-30T05:28:52;0.30;;;0.30;;
16654;SDS011;8441;51.344;7.022;2022-09-30T05:31:19;0.35;;;0.35;;
16654;SDS011;8441;51.344;7.022;2022-09-30T05:33:46;0.30;;;0.30;;
16654;SDS011;8441;51.344;7.022;2022-09-30T05:36:15;0.30;;;0.30;;
16654;SDS011;8441;51.344;7.022;2022-09-30T05:38:42;0.50;;;0.50;;
16654;SDS011;8441;51.344;7.022;2022-09-30T05:41:10;0.20;;;0.20;;
16654;SDS011;8441;51.344;7.022;2022-09-30T05:43:39;0.40;;;0.40;;
16654;SDS011;8441;51.344;7.022;2022-09-30T05:46:08;0.40;;;0.40;;
16654;SDS011;8441;51.344;7.022;2022-09-30T05:48:35;0.40;;;0.40;;
16654;SDS011;8441;51.344;7.022;2022-09-30T05:51:02;0.40;;;0.40;;
16654;SDS011;8441;51.344;7.022;2022-09-30T05:53:31;0.50;;;0.50;;
16654;SDS011;8441;51.344;7.022;2022-09-30T05:56:01;0.22;;;0.22;;
16654;SDS011;8441;51.344;7.022;2022-09-30T05:58:28;0.30;;;0.30;;
16654;SDS011;8441;51.344;7.022;2022-09-30T06:00:55;0.40;;;0.40;;
16654;SDS011;8441;51.344;7.022;2022-09-30T06:03:23;0.40;;;0.40;;
16654;SDS011;8441;51.344;7.022;2022-09-30T06:05:54;0.30;;;0.30;;
16654;SDS011;8441;51.344;7.022;2022-09-30T06:08:21;0.30;;;0.30;;
16654;SDS011;8441;51.344;7.022;2022-09-30T06:10:50;0.40;;;0.40;;
16654;SDS011;8441;51.344;7.022;2022-09-30T06:13:18;0.40;;;0.40;;
16654;SDS011;8441;51.344;7.022;2022-09-30T06:15:53;0.30;;;0.30;;
16654;SDS011;8441;51.344;7.022;2022-09-30T06:18:21;0.40;;;0.40;;
16654;SDS011;8441;51.344;7.022;2022-09-30T06:20:49;0.40;;;0.40;;
16654;SDS011;8441;51.344;7.022;2022-09-30T06:23:17;0.30;;;0.30;;
16654;SDS011;8441;51.344;7.022;2022-09-30T06:25:44;0.40;;;0.40;;
16654;SDS011;8441;51.344;7.022;2022-09-30T06:28:16;0.30;;;0.30;;
16654;SDS011;8441;51.344;7.022;2022-09-30T06:30:44;0.30;;;0.30;;
16654;SDS011;8441;51.344;7.022;2022-09-30T06:33:12;0.30;;;0.30;;
16654;SDS011;8441;51.344;7.022;2022-09-30T06:35:40;0.40;;;0.40;;
16654;SDS011;8441;51.344;7.022;2022-09-30T06:38:07;0.40;;;0.40;;
16654;SDS011;8441;51.344;7.022;2022-09-30T06:40:34;0.25;;;0.25;;
16654;SDS011;8441;51.344;7.022;2022-09-30T06:43:02;0.40;;;0.40;;
16654;SDS011;8441;51.344;7.022;2022-09-30T06:45:31;0.32;;;0.32;;
16654;SDS011;8441;51.344;7.022;2022-09-30T06:47:59;0.30;;;0.30;;
16654;SDS011;8441;51.344;7.022;2022-09-30T06:50:28;0.30;;;0.30;;
16654;SDS011;8441;51.344;7.022;2022-09-30T06:52:56;0.30;;;0.30;;
16654;SDS011;8441;51.344;7.022;2022-09-30T06:55:24;0.40;;;0.40;;
16654;SDS011;8441;51.344;7.022;2022-09-30T06:57:51;0.35;;;0.35;;
16654;SDS011;8441;51.344;7.022;2022-09-30T07:00:18;0.40;;;0.40;;
16654;SDS011;8441;51.344;7.022;2022-09-30T07:02:47;0.40;;;0.40;;
16654;SDS011;8441;51.344;7.022;2022-09-30T07:05:14;0.38;;;0.38;;
16654;SDS011;8441;51.344;7.022;2022-09-30T07:07:43;0.30;;;0.30;;
16654;SDS011;8441;51.344;7.022;2022-09-30T07:10:10;0.30;;;0.30;;
16654;SDS011;8441;51.344;7.022;2022-09-30T07:12:37;0.30;;;0.30;;
16654;SDS011;8441;51.344;7.022;2022-09-30T07:15:06;0.30;;;0.30;;
16654;SDS011;8441;51.344;7.022;2022-09-30T07:17:33;0.30;;;0.30;;
16654;SDS011;8441;51.344;7.022;2022-09-30T07:20:02;0.20;;;0.20;;
16654;SDS011;8441;51.344;7.022;2022-09-30T07:22:29;0.20;;;0.20;;
16654;SDS011;8441;51.344;7.022;2022-09-30T07:24:59;0.30;;;0.30;;
16654;SDS011;8441;51.344;7.022;2022-09-30T07:27:27;0.30;;;0.30;;
16654;SDS011;8441;51.344;7.022;2022-09-30T07:29:56;0.20;;;0.20;;
16654;SDS011;8441;51.344;7.022;2022-09-30T07:32:26;0.30;;;0.30;;
16654;SDS011;8441;51.344;7.022;2022-09-30T07:34:53;0.20;;;0.20;;
16654;SDS011;8441;51.344;7.022;2022-09-30T07:37:22;0.30;;;0.30;;
16654;SDS011;8441;51.344;7.022;2022-09-30T07:39:50;0.30;;;0.30;;
16654;SDS011;8441;51.344;7.022;2022-09-30T07:42:18;0.38;;;0.38;;
16654;SDS011;8441;51.344;7.022;2022-09-30T07:44:47;0.30;;;0.30;;
16654;SDS011;8441;51.344;7.022;2022-09-30T07:47:16;0.30;;;0.30;;
16654;SDS011;8441;51.344;7.022;2022-09-30T07:49:44;0.20;;;0.20;;
16654;SDS011;8441;51.344;7.022;2022-09-30T07:52:11;0.30;;;0.30;;
16654;SDS011;8441;51.344;7.022;2022-09-30T07:54:41;0.28;;;0.28;;
16654;SDS011;8441;51.344;7.022;2022-09-30T07:57:08;0.20;;;0.20;;
16654;SDS011;8441;51.344;7.022;2022-09-30T07:59:36;0.20;;;0.20;;
16654;SDS011;8441;51.344;7.022;2022-09-30T08:02:05;0.30;;;0.30;;
16654;SDS011;8441;51.344;7.022;2022-09-30T08:04:33;0.30;;;0.30;;
16654;SDS011;8441;51.344;7.022;2022-09-30T08:07:01;0.20;;;0.20;;
16654;SDS011;8441;51.344;7.022;2022-09-30T08:09:29;0.20;;;0.20;;
16654;SDS011;8441;51.344;7.022;2022-09-30T08:11:58;0.20;;;0.20;;
16654;SDS011;8441;51.344;7.022;2022-09-30T08:14:27;0.30;;;0.30;;
16654;SDS011;8441;51.344;7.022;2022-09-30T08:16:54;0.30;;;0.30;;
16654;SDS011;8441;51.344;7.022;2022-09-30T08:19:24;0.28;;;0.28;;
16654;SDS011;8441;51.344;7.022;2022-09-30T08:21:52;0.30;;;0.30;;
16654;SDS011;8441;51.344;7.022;2022-09-30T08:24:20;0.25;;;0.25;;
16654;SDS011;8441;51.344;7.022;2022-09-30T08:26:48;0.30;;;0.30;;
16654;SDS011;8441;51.344;7.022;2022-09-30T08:29:16;0.30;;;0.30;;
16654;SDS011;8441;51.344;7.022;2022-09-30T08:31:44;0.30;;;0.30;;
16654;SDS011;8441;51.344;7.022;2022-09-30T08:34:11;0.20;;;0.20;;
16654;SDS011;8441;51.344;7.022;2022-09-30T08:36:38;0.30;;;0.30;;
16654;SDS011;8441;51.344;7.022;2022-09-30T08:39:05;0.20;;;0.20;;
16654;SDS011;8441;51.344;7.022;2022-09-30T08:44:36;0.30;;;0.30;;
16654;SDS011;8441;51.344;7.022;2022-09-30T08:47:11;0.22;;;0.22;;
16654;SDS011;8441;51.344;7.022;2022-09-30T08:49:59;0.22;;;0.22;;
16654;SDS011;8441;51.344;7.022;2022-09-30T08:52:32;0.30;;;0.30;;
16654;SDS011;8441;51.344;7.022;2022-09-30T08:55:02;0.20;;;0.20;;
16654;SDS011;8441;51.344;7.022;2022-09-30T08:57:33;0.20;;;0.20;;
16654;SDS011;8441;51.344;7.022;2022-09-30T09:00:05;0.22;;;0.22;;
16654;SDS011;8441;51.344;7.022;2022-09-30T09:02:37;0.20;;;0.20;;
16654;SDS011;8441;51.344;7.022;2022-09-30T09:05:10;0.30;;;0.30;;
16654;SDS011;8441;51.344;7.022;2022-09-30T09:07:47;0.20;;;0.20;;
16654;SDS011;8441;51.344;7.022;2022-09-30T09:10:23;0.20;;;0.20;;
16654;SDS011;8441;51.344;7.022;2022-09-30T09:13:01;0.20;;;0.20;;
16654;SDS011;8441;51.344;7.022;2022-09-30T09:15:41;0.20;;;0.20;;
16654;SDS011;8441;51.344;7.022;2022-09-30T09:18:19;0.22;;;0.22;;
16654;SDS011;8441;51.344;7.022;2022-09-30T09:21:06;0.30;;;0.30;;
16654;SDS011;8441;51.344;7.022;2022-09-30T09:23:43;0.20;;;0.20;;
16654;SDS011;8441;51.344;7.022;2022-09-30T09:26:11;0.20;;;0.20;;
16654;SDS011;8441;51.344;7.022;2022-09-30T09:28:41;0.20;;;0.20;;
16654;SDS011;8441;51.344;7.022;2022-09-30T09:31:15;0.17;;;0.17;;
16654;SDS011;8441;51.344;7.022;2022-09-30T09:33:45;0.20;;;0.20;;
16654;SDS011;8441;51.344;7.022;2022-09-30T09:36:23;0.10;;;0.10;;
16654;SDS011;8441;51.344;7.022;2022-09-30T09:39:06;0.30;;;0.30;;
16654;SDS011;8441;51.344;7.022;2022-09-30T09:41:48;0.20;;;0.20;;
16654;SDS011;8441;51.344;7.022;2022-09-30T09:44:22;0.20;;;0.20;;
16654;SDS011;8441;51.344;7.022;2022-09-30T09:46:59;0.10;;;0.10;;
16654;SDS011;8441;51.344;7.022;2022-09-30T09:49:30;0.20;;;0.20;;
16654;SDS011;8441;51.344;7.022;2022-09-30T09:55:08;0.20;;;0.20;;
16654;SDS011;8441;51.344;7.022;2022-09-30T09:57:36;0.17;;;0.17;;
16654;SDS011;8441;51.344;7.022;2022-09-30T10:00:05;0.20;;;0.20;;
16654;SDS011;8441;51.344;7.022;2022-09-30T10:02:59;0.10;;;0.10;;
16654;SDS011;8441;51.344;7.022;2022-09-30T10:05:30;0.20;;;0.20;;
16654;SDS011;8441;51.344;7.022;2022-09-30T10:08:10;0.17;;;0.17;;
16654;SDS011;8441;51.344;7.022;2022-09-30T10:10:42;0.20;;;0.20;;
16654;SDS011;8441;51.344;7.022;2022-09-30T10:13:16;0.20;;;0.20;;
16654;SDS011;8441;51.344;7.022;2022-09-30T10:15:45;0.20;;;0.20;;
16654;SDS011;8441;51.344;7.022;2022-09-30T10:18:17;0.20;;;0.20;;
16654;SDS011;8441;51.344;7.022;2022-09-30T10:20:49;0.20;;;0.20;;
16654;SDS011;8441;51.344;7.022;2022-09-30T10:23:19;0.20;;;0.20;;
16654;SDS011;8441;51.344;7.022;2022-09-30T10:25:54;0.20;;;0.20;;
16654;SDS011;8441;51.344;7.022;2022-09-30T10:28:24;0.17;;;0.17;;
16654;SDS011;8441;51.344;7.022;2022-09-30T10:31:00;0.20;;;0.20;;
16654;SDS011;8441;51.344;7.022;2022-09-30T10:33:39;0.20;;;0.20;;
16654;SDS011;8441;51.344;7.022;2022-09-30T10:36:10;0.20;;;0.20;;
16654;SDS011;8441;51.344;7.022;2022-09-30T10:38:44;0.20;;;0.20;;
16654;SDS011;8441;51.344;7.022;2022-09-30T10:41:22;0.10;;;0.10;;
16654;SDS011;8441;51.344;7.022;2022-09-30T10:43:52;0.10;;;0.10;;
16654;SDS011;8441;51.344;7.022;2022-09-30T10:46:21;0.20;;;0.20;;
16654;SDS011;8441;51.344;7.022;2022-09-30T10:48:52;0.20;;;0.20;;
16654;SDS011;8441;51.344;7.022;2022-09-30T10:51:22;0.20;;;0.20;;
16654;SDS011;8441;51.344;7.022;2022-09-30T10:53:52;0.20;;;0.20;;
16654;SDS011;8441;51.344;7.022;2022-09-30T10:56:33;0.20;;;0.20;;
16654;SDS011;8441;51.344;7.022;2022-09-30T10:59:06;0.20;;;0.20;;
16654;SDS011;8441;51.344;7.022;2022-09-30T11:01:45;0.20;;;0.20;;
16654;SDS011;8441;51.344;7.022;2022-09-30T11:04:19;0.10;;;0.10;;
16654;SDS011;8441;51.344;7.022;2022-09-30T11:06:53;0.10;;;0.10;;
16654;SDS011;8441;51.344;7.022;2022-09-30T11:09:26;0.10;;;0.10;;
16654;SDS011;8441;51.344;7.022;2022-09-30T11:12:01;0.10;;;0.10;;
16654;SDS011;8441;51.344;7.022;2022-09-30T11:14:38;0.10;;;0.10;;
16654;SDS011;8441;51.344;7.022;2022-09-30T11:17:15;0.20;;;0.20;;
16654;SDS011;8441;51.344;7.022;2022-09-30T11:19:58;0.10;;;0.10;;
16654;SDS011;8441;51.344;7.022;2022-09-30T11:22:39;0.10;;;0.10;;
16654;SDS011;8441;51.344;7.022;2022-09-30T11:25:13;0.17;;;0.17;;
16654;SDS011;8441;51.344;7.022;2022-09-30T11:27:53;0.10;;;0.10;;
16654;SDS011;8441;51.344;7.022;2022-09-30T11:30:32;0.15;;;0.15;;
16654;SDS011;8441;51.344;7.022;2022-09-30T11:33:10;0.20;;;0.20;;
16654;SDS011;8441;51.344;7.022;2022-09-30T11:35:53;0.10;;;0.10;;
16654;SDS011;8441;51.344;7.022;2022-09-30T11:38:31;0.00;;;0.00;;
16654;SDS011;8441;51.344;7.022;2022-09-30T11:41:18;0.10;;;0.10;;
16654;SDS011;8441;51.344;7.022;2022-09-30T11:43:55;0.10;;;0.10;;
16654;SDS011;8441;51.344;7.022;2022-09-30T11:49:35;0.10;;;0.10;;
16654;SDS011;8441;51.344;7.022;2022-09-30T11:52:25;0.10;;;0.10;;
16654;SDS011;8441;51.344;7.022;2022-09-30T11:55:16;0.10;;;0.10;;
16654;SDS011;8441;51.344;7.022;2022-09-30T11:57:55;0.10;;;0.10;;
16654;SDS011;8441;51.344;7.022;2022-09-30T12:00:28;0.10;;;0.10;;
16654;SDS011;8441;51.344;7.022;2022-09-30T12:03:00;0.10;;;0.10;;
16654;SDS011;8441;51.344;7.022;2022-09-30T12:05:34;0.10;;;0.10;;
16654;SDS011;8441;51.344;7.022;2022-09-30T12:08:09;0.10;;;0.10;;
16654;SDS011;8441;51.344;7.022;2022-09-30T12:10:41;0.10;;;0.10;;
16654;SDS011;8441;51.344;7.022;2022-09-30T12:13:15;0.10;;;0.10;;
16654;SDS011;8441;51.344;7.022;2022-09-30T12:15:45;0.10;;;0.10;;
16654;SDS011;8441;51.344;7.022;2022-09-30T12:18:15;0.10;;;0.10;;
16654;SDS011;8441;51.344;7.022;2022-09-30T12:20:46;0.10;;;0.10;;
16654;SDS011;8441;51.344;7.022;2022-09-30T12:23:19;0.10;;;0.10;;
16654;SDS011;8441;51.344;7.022;2022-09-30T12:25:53;0.10;;;0.10;;
16654;SDS011;8441;51.344;7.022;2022-09-30T12:28:24;0.10;;;0.10;;
16654;SDS011;8441;51.344;7.022;2022-09-30T12:31:32;0.10;;;0.10;;
16654;SDS011;8441;51.344;7.022;2022-09-30T12:34:28;0.10;;;0.10;;
16654;SDS011;8441;51.344;7.022;2022-09-30T12:37:14;0.10;;;0.10;;
16654;SDS011;8441;51.344;7.022;2022-09-30T12:40:06;0.10;;;0.10;;
16654;SDS011;8441;51.344;7.022;2022-09-30T12:45:41;0.20;;;0.20;;
16654;SDS011;8441;51.344;7.022;2022-09-30T12:48:20;0.10;;;0.10;;
16654;SDS011;8441;51.344;7.022;2022-09-30T12:50:55;0.10;;;0.10;;
16654;SDS011;8441;51.344;7.022;2022-09-30T12:53:24;0.10;;;0.10;;
16654;SDS011;8441;51.344;7.022;2022-09-30T12:56:01;0.10;;;0.10;;
16654;SDS011;8441;51.344;7.022;2022-09-30T12:58:30;0.15;;;0.15;;
16654;SDS011;8441;51.344;7.022;2022-09-30T13:01:03;0.10;;;0.10;;
16654;SDS011;8441;51.344;7.022;2022-09-30T13:03:47;0.10;;;0.10;;
16654;SDS011;8441;51.344;7.022;2022-09-30T13:06:17;0.10;;;0.10;;
16654;SDS011;8441;51.344;7.022;2022-09-30T13:08:46;0.10;;;0.10;;
16654;SDS011;8441;51.344;7.022;2022-09-30T13:11:42;0.10;;;0.10;;
16654;SDS011;8441;51.344;7.022;2022-09-30T13:17:20;0.10;;;0.10;;
16654;SDS011;8441;51.344;7.022;2022-09-30T13:19:51;0.10;;;0.10;;
16654;SDS011;8441;51.344;7.022;2022-09-30T13:25:20;0.10;;;0.10;;
16654;SDS011;8441;51.344;7.022;2022-09-30T13:27:49;0.10;;;0.10;;
16654;SDS011;8441;51.344;7.022;2022-09-30T13:30:35;0.10;;;0.10;;
16654;SDS011;8441;51.344;7.022;2022-09-30T13:36:06;0.10;;;0.10;;
16654;SDS011;8441;51.344;7.022;2022-09-30T13:38:43;0.10;;;0.10;;
16654;SDS011;8441;51.344;7.022;2022-09-30T13:41:15;0.10;;;0.10;;
16654;SDS011;8441;51.344;7.022;2022-09-30T13:43:50;0.10;;;0.10;;
16654;SDS011;8441;51.344;7.022;2022-09-30T13:46:27;0.10;;;0.10;;
16654;SDS011;8441;51.344;7.022;2022-09-30T13:49:00;0.10;;;0.10;;
16654;SDS011;8441;51.344;7.022;2022-09-30T13:51:30;0.10;;;0.10;;
16654;SDS011;8441;51.344;7.022;2022-09-30T13:54:01;0.10;;;0.10;;
16654;SDS011;8441;51.344;7.022;2022-09-30T13:56:32;0.10;;;0.10;;
16654;SDS011;8441;51.344;7.022;2022-09-30T14:01:55;0.10;;;0.10;;
16654;SDS011;8441;51.344;7.022;2022-09-30T14:05:02;0.10;;;0.10;;
16654;SDS011;8441;51.344;7.022;2022-09-30T14:07:50;0.10;;;0.10;;
16654;SDS011;8441;51.344;7.022;2022-09-30T14:10:38;0.10;;;0.10;;
16654;SDS011;8441;51.344;7.022;2022-09-30T14:13:22;0.10;;;0.10;;
16654;SDS011;8441;51.344;7.022;2022-09-30T14:16:07;0.03;;;0.03;;
16654;SDS011;8441;51.344;7.022;2022-09-30T14:19:11;0.10;;;0.10;;
16654;SDS011;8441;51.344;7.022;2022-09-30T14:21:50;0.10;;;0.10;;
16654;SDS011;8441;51.344;7.022;2022-09-30T14:24:21;0.10;;;0.10;;
16654;SDS011;8441;51.344;7.022;2022-09-30T14:26:55;0.10;;;0.10;;
16654;SDS011;8441;51.344;7.022;2022-09-30T14:29:42;0.10;;;0.10;;
16654;SDS011;8441;51.344;7.022;2022-09-30T14:32:20;0.10;;;0.10;;
16654;SDS011;8441;51.344;7.022;2022-09-30T14:34:53;0.10;;;0.10;;
16654;SDS011;8441;51.344;7.022;2022-09-30T14:37:25;0.10;;;0.10;;
16654;SDS011;8441;51.344;7.022;2022-09-30T14:39:55;0.10;;;0.10;;
16654;SDS011;8441;51.344;7.022;2022-09-30T14:42:25;0.17;;;0.17;;
16654;SDS011;8441;51.344;7.022;2022-09-30T14:44:56;0.10;;;0.10;;
16654;SDS011;8441;51.344;7.022;2022-09-30T14:47:30;0.10;;;0.10;;
16654;SDS011;8441;51.344;7.022;2022-09-30T14:50:02;0.10;;;0.10;;
16654;SDS011;8441;51.344;7.022;2022-09-30T14:52:36;0.20;;;0.20;;
16654;SDS011;8441;51.344;7.022;2022-09-30T14:55:16;0.10;;;0.10;;
16654;SDS011;8441;51.344;7.022;2022-09-30T14:57:47;0.10;;;0.10;;
16654;SDS011;8441;51.344;7.022;2022-09-30T15:00:19;0.10;;;0.10;;
16654;SDS011;8441;51.344;7.022;2022-09-30T15:02:50;0.10;;;0.10;;
16654;SDS011;8441;51.344;7.022;2022-09-30T15:05:18;0.10;;;0.10;;
16654;SDS011;8441;51.344;7.022;2022-09-30T15:07:45;0.10;;;0.10;;
16654;SDS011;8441;51.344;7.022;2022-09-30T15:10:15;0.10;;;0.10;;
16654;SDS011;8441;51.344;7.022;2022-09-30T15:12:46;0.10;;;0.10;;
16654;SDS011;8441;51.344;7.022;2022-09-30T15:15:26;0.10;;;0.10;;
16654;SDS011;8441;51.344;7.022;2022-09-30T15:18:04;0.10;;;0.10;;
16654;SDS011;8441;51.344;7.022;2022-09-30T15:20:48;0.10;;;0.10;;
16654;SDS011;8441;51.344;7.022;2022-09-30T15:23:18;0.10;;;0.10;;
16654;SDS011;8441;51.344;7.022;2022-09-30T15:25:49;0.10;;;0.10;;
16654;SDS011;8441;51.344;7.022;2022-09-30T15:28:17;0.10;;;0.10;;
16654;SDS011;8441;51.344;7.022;2022-09-30T15:30:44;0.10;;;0.10;;
16654;SDS011;8441;51.344;7.022;2022-09-30T15:33:15;0.20;;;0.20;;
16654;SDS011;8441;51.344;7.022;2022-09-30T15:35:44;0.10;;;0.10;;
16654;SDS011;8441;51.344;7.022;2022-09-30T15:38:14;0.10;;;0.10;;
16654;SDS011;8441;51.344;7.022;2022-09-30T15:40:47;0.10;;;0.10;;
16654;SDS011;8441;51.344;7.022;2022-09-30T15:43:29;0.10;;;0.10;;
16654;SDS011;8441;51.344;7.022;2022-09-30T15:48:54;0.00;;;0.00;;
16654;SDS011;8441;51.344;7.022;2022-09-30T15:51:25;0.10;;;0.10;;
16654;SDS011;8441;51.344;7.022;2022-09-30T15:53:58;0.10;;;0.10;;
16654;SDS011;8441;51.344;7.022;2022-09-30T15:56:30;0.10;;;0.10;;
16654;SDS011;8441;51.344;7.022;2022-09-30T15:59:00;0.10;;;0.10;;
16654;SDS011;8441;51.344;7.022;2022-09-30T16:01:33;0.10;;;0.10;;
16654;SDS011;8441;51.344;7.022;2022-09-30T16:04:06;0.10;;;0.10;;
16654;SDS011;8441;51.344;7.022;2022-09-30T16:06:42;0.10;;;0.10;;
16654;SDS011;8441;51.344;7.022;2022-09-30T16:09:19;0.10;;;0.10;;
16654;SDS011;8441;51.344;7.022;2022-09-30T16:11:55;0.10;;;0.10;;